M/V Alton St. Amant — WDE7604 — position and weather

sailwx.info

Track history (hours):
 
Tides and Currents Weather Stations Pressure Air Temp Water Temp Dewpoint Dewpoint Depression Visibility Wind Speed Wind Dir Waves Ship Positions

M/V Alton St. Amant

Owner: The Barge Investment Group Five, L.L.C., Harahan, LA. More information available from US FCC via Universal Licensing System and Coast Guard Vessel Documentation Center.

Last reported at 2018-Feb-17 23:12 UTC. Time now 2018-Feb-23 02:44 UTC.
Position N 27°50' W 097°07'.

Length 25 m; draft 3 m.

Type: Towing. MMSI: 367395270.

Date/timePositionNaut miles runAvg speedWind from/ knotsBaromVisibWave heightAir tempDewpointWater temp
2018-Feb-17 23:12N 27°50' W 097°07'3 9.8
2018-Feb-17 22:57N 27°50' W 097°05'3 5.8
2018-Feb-17 22:29N 27°53' W 097°03'3 6.5
2018-Feb-17 22:00N 27°56' W 097°03'3 6.3
2018-Feb-17 21:29N 27°59' W 097°03'4 7.1
2018-Feb-17 20:59N 28°02' W 097°00'3 6.5
2018-Feb-17 20:30N 28°04' W 096°58'3 5.5
2018-Feb-17 20:00N 28°06' W 096°56'1 2.7
2018-Feb-17 19:29N 28°07' W 096°55'0 0.0
2018-Feb-17 18:59N 28°07' W 096°55'0 0.0
2018-Feb-17 18:29N 28°07' W 096°55'0 0.0
2018-Feb-17 17:59N 28°07' W 096°55'0 0.0
2018-Feb-17 17:30N 28°07' W 096°55'0 0.0
2018-Feb-17 16:59N 28°07' W 096°55'0 0.0
2018-Feb-17 16:29N 28°07' W 096°55'0 0.0
2018-Feb-17 15:59N 28°07' W 096°55'0 0.0
2018-Feb-17 08:47N 28°07' W 096°55'0 0.0
2018-Feb-17 08:29N 28°07' W 096°55'0 0.0
2018-Feb-17 08:00N 28°07' W 096°55'0 0.0
2018-Feb-17 07:30N 28°07' W 096°55'0 0.0
2018-Feb-17 06:59N 28°07' W 096°55'0 0.0
2018-Feb-17 06:30N 28°07' W 096°55'0 0.0
2018-Feb-17 06:00N 28°07' W 096°55'0 0.0
2018-Feb-17 05:29N 28°07' W 096°55'0 0.0
2018-Feb-17 05:00N 28°07' W 096°55'0 0.0
2018-Feb-17 04:29N 28°07' W 096°55'0 0.0
2018-Feb-17 03:59N 28°07' W 096°55'0 0.0
2018-Feb-17 03:29N 28°07' W 096°55'0 0.0
2018-Feb-17 02:58N 28°07' W 096°55'0 0.0
2018-Feb-17 02:29N 28°07' W 096°55'0 0.0
2018-Feb-17 01:59N 28°07' W 096°55'0 0.0
2018-Feb-17 01:30N 28°07' W 096°55'0 0.0
2018-Feb-17 01:00N 28°07' W 096°55'0 0.0
2018-Feb-17 00:29N 28°07' W 096°55'0 0.0
2018-Feb-17 00:00N 28°07' W 096°55'0 0.0
2018-Feb-16 23:29N 28°07' W 096°55'0 0.0
2018-Feb-16 23:00N 28°07' W 096°55'0 0.0
2018-Feb-16 22:30N 28°07' W 096°55'0 0.0
2018-Feb-16 21:59N 28°07' W 096°55'0 0.0
2018-Feb-16 21:30N 28°07' W 096°55'0 0.0
2018-Feb-16 20:59N 28°07' W 096°55'0 0.0
2018-Feb-16 20:29N 28°07' W 096°55'0 0.1
2018-Feb-16 20:00N 28°07' W 096°55'2 3.8
2018-Feb-16 19:27N 28°09' W 096°54'3 5.6
2018-Feb-16 18:59N 28°11' W 096°51'12 4.6
2018-Feb-16 16:24N 28°18' W 096°41'1 2.8
2018-Feb-16 15:59N 28°19' W 096°40'0 0.1
2018-Feb-16 15:20N 28°19' W 096°40'0 0.0
2018-Feb-16 15:00N 28°19' W 096°40'0 0.0
2018-Feb-16 10:34N 28°19' W 096°40'0 0.0
2018-Feb-16 07:49N 28°19' W 096°40'0 0.0
2018-Feb-16 07:10N 28°19' W 096°40'0 0.0
2018-Feb-16 06:44N 28°19' W 096°40'0 0.0
2018-Feb-16 06:27N 28°19' W 096°40'0 0.0
2018-Feb-16 05:58N 28°19' W 096°40'0 0.0
2018-Feb-16 05:28N 28°19' W 096°40'0 0.0
2018-Feb-16 04:55N 28°19' W 096°40'0 0.0
2018-Feb-16 04:30N 28°19' W 096°40'0 0.0
2018-Feb-16 03:57N 28°19' W 096°40'0 0.0
2018-Feb-16 03:23N 28°19' W 096°40'0 0.0
2018-Feb-16 02:57N 28°19' W 096°40'0 0.0
2018-Feb-16 02:28N 28°19' W 096°40'0 0.0
2018-Feb-16 01:52N 28°19' W 096°40'0 0.0
2018-Feb-16 01:25N 28°19' W 096°40'0 0.0
2018-Feb-16 00:56N 28°19' W 096°40'0 0.6
2018-Feb-16 00:29N 28°19' W 096°40'1 0.9
2018-Feb-15 23:55N 28°20' W 096°39'0 0.2
2018-Feb-15 23:30N 28°20' W 096°39'0 0.1
2018-Feb-15 22:58N 28°20' W 096°39'2 4.1
2018-Feb-15 22:22N 28°21' W 096°37'2 5.0
2018-Feb-15 22:00N 28°22' W 096°35'3 5.3
2018-Feb-15 21:28N 28°23' W 096°32'2 4.9
2018-Feb-15 21:00N 28°24' W 096°30'2 2.1
2018-Feb-15 20:14N 28°25' W 096°28'1 4.6
2018-Feb-15 19:59N 28°26' W 096°27'  
2018-Feb-12 05:01N 29°44' W 095°03'0 1.0
2018-Feb-12 05:00N 29°44' W 095°03'2 3.4
2018-Feb-12 04:20N 29°42' W 095°01'2 6.3
2018-Feb-12 04:00N 29°41' W 094°59'4 7.3
2018-Feb-12 03:30N 29°38' W 094°58'4 7.9
2018-Feb-12 03:00N 29°34' W 094°55'4 7.9
2018-Feb-12 02:29N 29°31' W 094°53'24 3.3
2018-Feb-11 19:08N 29°34' W 094°25'1 4.6
2018-Feb-11 18:55N 29°35' W 094°25'2 1.6
2018-Feb-11 17:34N 29°36' W 094°23'0 0.8
2018-Feb-11 17:16N 29°36' W 094°22'1 2.9
2018-Feb-11 17:00N 29°37' W 094°22'2 1.2
2018-Feb-11 15:31N 29°37' W 094°20'0 4.4
2018-Feb-11 15:25N 29°38' W 094°19'2 4.2
2018-Feb-11 14:53N 29°39' W 094°17'1 2.4
2018-Feb-11 14:27N 29°39' W 094°16'0 0.1
2018-Feb-11 13:59N 29°39' W 094°16'0 0.0
2018-Feb-11 13:28N 29°39' W 094°16'0 0.0
2018-Feb-11 12:59N 29°39' W 094°16'0 0.0
2018-Feb-11 12:30N 29°39' W 094°16'0 0.0
2018-Feb-11 12:00N 29°39' W 094°16'0 0.0
2018-Feb-11 11:30N 29°39' W 094°16'0 0.0
2018-Feb-11 11:00N 29°39' W 094°16'0 0.0
2018-Feb-11 10:30N 29°39' W 094°16'0 0.0
2018-Feb-11 10:00N 29°39' W 094°16'0 0.0
2018-Feb-11 09:30N 29°39' W 094°16'0 0.0
2018-Feb-11 09:00N 29°39' W 094°16'0 0.0
2018-Feb-11 08:30N 29°39' W 094°16'0 0.0
2018-Feb-11 08:00N 29°39' W 094°16'0 0.0
2018-Feb-11 07:30N 29°39' W 094°16'0 0.0
2018-Feb-11 07:00N 29°39' W 094°16'0 0.0
2018-Feb-11 06:30N 29°39' W 094°16'0 0.1
2018-Feb-11 06:00N 29°39' W 094°16'0 0.3
2018-Feb-11 05:26N 29°39' W 094°16'1 1.9
2018-Feb-11 05:00N 29°40' W 094°15'2 4.7
2018-Feb-11 04:29N 29°41' W 094°12'3 4.8
2018-Feb-11 03:58N 29°41' W 094°10'2 5.0
2018-Feb-11 03:30N 29°43' W 094°08'2 5.0
2018-Feb-11 03:00N 29°44' W 094°05'3 5.1
2018-Feb-11 02:30N 29°46' W 094°03'3 5.2
2018-Feb-11 02:00N 29°48' W 094°01'2 4.7
2018-Feb-11 01:30N 29°49' W 093°59'2 4.5
2018-Feb-11 01:00N 29°51' W 093°57'3 7.0
2018-Feb-11 00:30N 29°54' W 093°55'4 7.1
2018-Feb-11 00:00N 29°56' W 093°52'3 5.7
2018-Feb-10 23:30N 29°59' W 093°50'3 6.5
2018-Feb-10 23:00N 29°60' W 093°46'3 5.9
2018-Feb-10 22:30N 30°02' W 093°44'3 5.3
2018-Feb-10 21:58N 30°04' W 093°41'3 5.7
2018-Feb-10 21:29N 30°04' W 093°38'3 5.4
2018-Feb-10 20:57N 30°04' W 093°35'2 5.1
2018-Feb-10 20:30N 30°04' W 093°32'3 5.2
2018-Feb-10 20:00N 30°04' W 093°29'3 5.2
2018-Feb-10 19:30N 30°04' W 093°26'3 5.1
2018-Feb-10 19:00N 30°04' W 093°23'2 4.5
2018-Feb-10 18:30N 30°04' W 093°21'1 1.3
2018-Feb-10 18:00N 30°04' W 093°20'0 0.0
2018-Feb-10 17:30N 30°04' W 093°20'0 0.0
2018-Feb-10 17:00N 30°04' W 093°20'0 0.0
2018-Feb-10 16:30N 30°04' W 093°20'0 0.0
2018-Feb-10 16:00N 30°04' W 093°20'0 0.0
2018-Feb-10 15:30N 30°04' W 093°20'0 0.0
2018-Feb-10 15:00N 30°04' W 093°20'0 0.0
2018-Feb-10 14:30N 30°04' W 093°20'0 0.0
2018-Feb-10 14:00N 30°04' W 093°20'0 0.0
2018-Feb-10 13:30N 30°04' W 093°20'0 0.0
2018-Feb-10 13:00N 30°04' W 093°20'0 0.0
2018-Feb-10 12:30N 30°04' W 093°20'0 0.0
2018-Feb-10 12:00N 30°04' W 093°20'0 0.0
2018-Feb-10 11:30N 30°04' W 093°20'0 0.0
2018-Feb-10 11:00N 30°04' W 093°20'0 0.0
2018-Feb-10 10:30N 30°04' W 093°20'0 0.0
2018-Feb-10 10:00N 30°04' W 093°20'0 0.0
2018-Feb-10 09:30N 30°04' W 093°20'0 0.0
2018-Feb-10 09:00N 30°04' W 093°20'0 0.0
2018-Feb-10 08:30N 30°04' W 093°20'0 0.0
2018-Feb-10 08:00N 30°04' W 093°20'0 0.0
2018-Feb-10 07:30N 30°04' W 093°20'0 0.0
2018-Feb-10 07:00N 30°04' W 093°20'0 0.0
2018-Feb-10 06:30N 30°04' W 093°20'0 0.0
2018-Feb-10 05:56N 30°04' W 093°20'0 0.0
2018-Feb-10 05:30N 30°04' W 093°20'0 0.0
2018-Feb-10 05:00N 30°04' W 093°20'0 0.0
2018-Feb-10 04:30N 30°04' W 093°20'0 0.0
2018-Feb-10 04:00N 30°04' W 093°20'0 0.0
2018-Feb-10 03:30N 30°04' W 093°20'0 0.0
2018-Feb-10 03:00N 30°04' W 093°20'0 0.1
2018-Feb-10 02:30N 30°04' W 093°20'0 0.1
2018-Feb-10 02:01N 30°04' W 093°20'0 0.1
2018-Feb-10 01:30N 30°04' W 093°20'0 0.0
2018-Feb-10 01:00N 30°04' W 093°20'0 0.0
2018-Feb-10 00:11N 30°04' W 093°20'0 0.0
2018-Feb-09 10:30N 30°04' W 093°20'  
Track history (hours):
 
Tides and Currents Weather Stations Pressure Air Temp Water Temp Dewpoint Dewpoint Depression Visibility Wind Speed Wind Dir Waves Ship Positions

M/V Alton St. Amant

Owner: The Barge Investment Group Five, L.L.C., Harahan, LA. More information available from US FCC via Universal Licensing System and Coast Guard Vessel Documentation Center.

Last reported at 2018-Feb-17 23:12 UTC. Time now 2018-Feb-23 02:44 UTC.
Position N 27°50' W 097°07'.

Length 25 m; draft 3 m.

Type: Towing. MMSI: 367395270.

Date/timePositionNaut miles runAvg speedWind from/ knotsBaromVisibWave heightAir tempDewpointWater temp
2018-Feb-17 23:12N 27°50' W 097°07'3 9.8
2018-Feb-17 22:57N 27°50' W 097°05'3 5.8
2018-Feb-17 22:29N 27°53' W 097°03'3 6.5
2018-Feb-17 22:00N 27°56' W 097°03'3 6.3
2018-Feb-17 21:29N 27°59' W 097°03'4 7.1
2018-Feb-17 20:59N 28°02' W 097°00'3 6.5
2018-Feb-17 20:30N 28°04' W 096°58'3 5.5
2018-Feb-17 20:00N 28°06' W 096°56'1 2.7
2018-Feb-17 19:29N 28°07' W 096°55'0 0.0
2018-Feb-17 18:59N 28°07' W 096°55'0 0.0
2018-Feb-17 18:29N 28°07' W 096°55'0 0.0
2018-Feb-17 17:59N 28°07' W 096°55'0 0.0
2018-Feb-17 17:30N 28°07' W 096°55'0 0.0
2018-Feb-17 16:59N 28°07' W 096°55'0 0.0
2018-Feb-17 16:29N 28°07' W 096°55'0 0.0
2018-Feb-17 15:59N 28°07' W 096°55'0 0.0
2018-Feb-17 08:47N 28°07' W 096°55'0 0.0
2018-Feb-17 08:29N 28°07' W 096°55'0 0.0
2018-Feb-17 08:00N 28°07' W 096°55'0 0.0
2018-Feb-17 07:30N 28°07' W 096°55'0 0.0
2018-Feb-17 06:59N 28°07' W 096°55'0 0.0
2018-Feb-17 06:30N 28°07' W 096°55'0 0.0
2018-Feb-17 06:00N 28°07' W 096°55'0 0.0
2018-Feb-17 05:29N 28°07' W 096°55'0 0.0
2018-Feb-17 05:00N 28°07' W 096°55'0 0.0
2018-Feb-17 04:29N 28°07' W 096°55'0 0.0
2018-Feb-17 03:59N 28°07' W 096°55'0 0.0
2018-Feb-17 03:29N 28°07' W 096°55'0 0.0
2018-Feb-17 02:58N 28°07' W 096°55'0 0.0
2018-Feb-17 02:29N 28°07' W 096°55'0 0.0
2018-Feb-17 01:59N 28°07' W 096°55'0 0.0
2018-Feb-17 01:30N 28°07' W 096°55'0 0.0
2018-Feb-17 01:00N 28°07' W 096°55'0 0.0
2018-Feb-17 00:29N 28°07' W 096°55'0 0.0
2018-Feb-17 00:00N 28°07' W 096°55'0 0.0
2018-Feb-16 23:29N 28°07' W 096°55'0 0.0
2018-Feb-16 23:00N 28°07' W 096°55'0 0.0
2018-Feb-16 22:30N 28°07' W 096°55'0 0.0
2018-Feb-16 21:59N 28°07' W 096°55'0 0.0
2018-Feb-16 21:30N 28°07' W 096°55'0 0.0
2018-Feb-16 20:59N 28°07' W 096°55'0 0.0
2018-Feb-16 20:29N 28°07' W 096°55'0 0.1
2018-Feb-16 20:00N 28°07' W 096°55'2 3.8
2018-Feb-16 19:27N 28°09' W 096°54'3 5.6
2018-Feb-16 18:59N 28°11' W 096°51'12 4.6
2018-Feb-16 16:24N 28°18' W 096°41'1 2.8
2018-Feb-16 15:59N 28°19' W 096°40'0 0.1
2018-Feb-16 15:20N 28°19' W 096°40'0 0.0
2018-Feb-16 15:00N 28°19' W 096°40'0 0.0
2018-Feb-16 10:34N 28°19' W 096°40'0 0.0
2018-Feb-16 07:49N 28°19' W 096°40'0 0.0
2018-Feb-16 07:10N 28°19' W 096°40'0 0.0
2018-Feb-16 06:44N 28°19' W 096°40'0 0.0
2018-Feb-16 06:27N 28°19' W 096°40'0 0.0
2018-Feb-16 05:58N 28°19' W 096°40'0 0.0
2018-Feb-16 05:28N 28°19' W 096°40'0 0.0
2018-Feb-16 04:55N 28°19' W 096°40'0 0.0
2018-Feb-16 04:30N 28°19' W 096°40'0 0.0
2018-Feb-16 03:57N 28°19' W 096°40'0 0.0
2018-Feb-16 03:23N 28°19' W 096°40'0 0.0
2018-Feb-16 02:57N 28°19' W 096°40'0 0.0
2018-Feb-16 02:28N 28°19' W 096°40'0 0.0
2018-Feb-16 01:52N 28°19' W 096°40'0 0.0
2018-Feb-16 01:25N 28°19' W 096°40'0 0.0
2018-Feb-16 00:56N 28°19' W 096°40'0 0.6
2018-Feb-16 00:29N 28°19' W 096°40'1 0.9
2018-Feb-15 23:55N 28°20' W 096°39'0 0.2
2018-Feb-15 23:30N 28°20' W 096°39'0 0.1
2018-Feb-15 22:58N 28°20' W 096°39'2 4.1
2018-Feb-15 22:22N 28°21' W 096°37'2 5.0
2018-Feb-15 22:00N 28°22' W 096°35'3 5.3
2018-Feb-15 21:28N 28°23' W 096°32'2 4.9
2018-Feb-15 21:00N 28°24' W 096°30'2 2.1
2018-Feb-15 20:14N 28°25' W 096°28'1 4.6
2018-Feb-15 19:59N 28°26' W 096°27'  
2018-Feb-12 05:01N 29°44' W 095°03'0 1.0
2018-Feb-12 05:00N 29°44' W 095°03'2 3.4
2018-Feb-12 04:20N 29°42' W 095°01'2 6.3
2018-Feb-12 04:00N 29°41' W 094°59'4 7.3
2018-Feb-12 03:30N 29°38' W 094°58'4 7.9
2018-Feb-12 03:00N 29°34' W 094°55'4 7.9
2018-Feb-12 02:29N 29°31' W 094°53'24 3.3
2018-Feb-11 19:08N 29°34' W 094°25'1 4.6
2018-Feb-11 18:55N 29°35' W 094°25'2 1.6
2018-Feb-11 17:34N 29°36' W 094°23'0 0.8
2018-Feb-11 17:16N 29°36' W 094°22'1 2.9
2018-Feb-11 17:00N 29°37' W 094°22'2 1.2
2018-Feb-11 15:31N 29°37' W 094°20'0 4.4
2018-Feb-11 15:25N 29°38' W 094°19'2 4.2
2018-Feb-11 14:53N 29°39' W 094°17'1 2.4
2018-Feb-11 14:27N 29°39' W 094°16'0 0.1
2018-Feb-11 13:59N 29°39' W 094°16'0 0.0
2018-Feb-11 13:28N 29°39' W 094°16'0 0.0
2018-Feb-11 12:59N 29°39' W 094°16'0 0.0
2018-Feb-11 12:30N 29°39' W 094°16'0 0.0
2018-Feb-11 12:00N 29°39' W 094°16'0 0.0
2018-Feb-11 11:30N 29°39' W 094°16'0 0.0
2018-Feb-11 11:00N 29°39' W 094°16'0 0.0
2018-Feb-11 10:30N 29°39' W 094°16'0 0.0
2018-Feb-11 10:00N 29°39' W 094°16'0 0.0
2018-Feb-11 09:30N 29°39' W 094°16'0 0.0
2018-Feb-11 09:00N 29°39' W 094°16'0 0.0
2018-Feb-11 08:30N 29°39' W 094°16'0 0.0
2018-Feb-11 08:00N 29°39' W 094°16'0 0.0
2018-Feb-11 07:30N 29°39' W 094°16'0 0.0
2018-Feb-11 07:00N 29°39' W 094°16'0 0.0
2018-Feb-11 06:30N 29°39' W 094°16'0 0.1
2018-Feb-11 06:00N 29°39' W 094°16'0 0.3
2018-Feb-11 05:26N 29°39' W 094°16'1 1.9
2018-Feb-11 05:00N 29°40' W 094°15'2 4.7
2018-Feb-11 04:29N 29°41' W 094°12'3 4.8
2018-Feb-11 03:58N 29°41' W 094°10'2 5.0
2018-Feb-11 03:30N 29°43' W 094°08'2 5.0
2018-Feb-11 03:00N 29°44' W 094°05'3 5.1
2018-Feb-11 02:30N 29°46' W 094°03'3 5.2
2018-Feb-11 02:00N 29°48' W 094°01'2 4.7
2018-Feb-11 01:30N 29°49' W 093°59'2 4.5
2018-Feb-11 01:00N 29°51' W 093°57'3 7.0
2018-Feb-11 00:30N 29°54' W 093°55'4 7.1
2018-Feb-11 00:00N 29°56' W 093°52'3 5.7
2018-Feb-10 23:30N 29°59' W 093°50'3 6.5
2018-Feb-10 23:00N 29°60' W 093°46'3 5.9
2018-Feb-10 22:30N 30°02' W 093°44'3 5.3
2018-Feb-10 21:58N 30°04' W 093°41'3 5.7
2018-Feb-10 21:29N 30°04' W 093°38'3 5.4
2018-Feb-10 20:57N 30°04' W 093°35'2 5.1
2018-Feb-10 20:30N 30°04' W 093°32'3 5.2
2018-Feb-10 20:00N 30°04' W 093°29'3 5.2
2018-Feb-10 19:30N 30°04' W 093°26'3 5.1
2018-Feb-10 19:00N 30°04' W 093°23'2 4.5
2018-Feb-10 18:30N 30°04' W 093°21'1 1.3
2018-Feb-10 18:00N 30°04' W 093°20'0 0.0
2018-Feb-10 17:30N 30°04' W 093°20'0 0.0
2018-Feb-10 17:00N 30°04' W 093°20'0 0.0
2018-Feb-10 16:30N 30°04' W 093°20'0 0.0
2018-Feb-10 16:00N 30°04' W 093°20'0 0.0
2018-Feb-10 15:30N 30°04' W 093°20'0 0.0
2018-Feb-10 15:00N 30°04' W 093°20'0 0.0
2018-Feb-10 14:30N 30°04' W 093°20'0 0.0
2018-Feb-10 14:00N 30°04' W 093°20'0 0.0
2018-Feb-10 13:30N 30°04' W 093°20'0 0.0
2018-Feb-10 13:00N 30°04' W 093°20'0 0.0
2018-Feb-10 12:30N 30°04' W 093°20'0 0.0
2018-Feb-10 12:00N 30°04' W 093°20'0 0.0
2018-Feb-10 11:30N 30°04' W 093°20'0 0.0
2018-Feb-10 11:00N 30°04' W 093°20'0 0.0
2018-Feb-10 10:30N 30°04' W 093°20'0 0.0
2018-Feb-10 10:00N 30°04' W 093°20'0 0.0
2018-Feb-10 09:30N 30°04' W 093°20'0 0.0
2018-Feb-10 09:00N 30°04' W 093°20'0 0.0
2018-Feb-10 08:30N 30°04' W 093°20'0 0.0
2018-Feb-10 08:00N 30°04' W 093°20'0 0.0
2018-Feb-10 07:30N 30°04' W 093°20'0 0.0
2018-Feb-10 07:00N 30°04' W 093°20'0 0.0
2018-Feb-10 06:30N 30°04' W 093°20'0 0.0
2018-Feb-10 05:56N 30°04' W 093°20'0 0.0
2018-Feb-10 05:30N 30°04' W 093°20'0 0.0
2018-Feb-10 05:00N 30°04' W 093°20'0 0.0
2018-Feb-10 04:30N 30°04' W 093°20'0 0.0
2018-Feb-10 04:00N 30°04' W 093°20'0 0.0
2018-Feb-10 03:30N 30°04' W 093°20'0 0.0
2018-Feb-10 03:00N 30°04' W 093°20'0 0.1
2018-Feb-10 02:30N 30°04' W 093°20'0 0.1
2018-Feb-10 02:01N 30°04' W 093°20'0 0.1
2018-Feb-10 01:30N 30°04' W 093°20'0 0.0
2018-Feb-10 01:00N 30°04' W 093°20'0 0.0
2018-Feb-10 00:11N 30°04' W 093°20'0 0.0
2018-Feb-09 10:30N 30°04' W 093°20'  

Dump ship's entire track history